Latest Weather Observations for Minlaton Airport

IDS60801

Issued at 10:01 pm CDT Thursday 23 February 2017 (issued every 30 minutes, with the page automatically refreshed every 10 minutes)

About weather observations | Map of weather stations | Latest weather observations for SA | Other Formats
Station Details ID: 022031 Name: MINLATON AERO Lat: -34.75 Lon: 137.53 Height: 32.0 m
Data from the previous 72 hours. | See also: Recent months at Minlaton Airport
Date/Time
CDT
Temp
°C
App
Temp
°C
Dew
Point
°C
Rel
Hum
%
Delta-T
°C
Wind Press
QNH
hPa
Press
MSL
hPa
Rain since
9am
mm
Dir  Spd
km/h
Gust
km/h
Spd
kts
Gust
kts
23/09:30pm 15.9 12.8 10.2 69 3.0 S 17 19 9 10 1023.7 1023.6 0.0
23/09:00pm 16.5 13.1 10.4 67 3.2 S 19 24 10 13 1023.4 1023.3 0.0
23/08:30pm 17.6 13.5 10.2 62 3.9 S 22 28 12 15 1022.8 1022.7 0.0
23/08:00pm 18.6 14.9 10.2 58 4.5 S 20 24 11 13 1022.6 1022.5 0.0
23/07:30pm 20.2 16.7 10.9 55 5.1 WSW 20 26 11 14 1022.0 1021.9 0.0
23/07:00pm 20.6 15.5 10.7 53 5.4 WSW 28 35 15 19 1021.9 1021.8 0.0
23/06:30pm 21.5 16.0 10.6 50 5.9 WSW 30 37 16 20 1021.7 1021.6 0.0
23/06:00pm 21.8 16.0 10.9 50 6.0 WSW 32 41 17 22 1021.6 1021.5 0.0
23/05:30pm 21.7 15.6 10.5 49 6.1 WSW 33 43 18 23 1021.2 1021.1 0.0
23/05:00pm 22.3 16.4 10.5 47 6.5 WSW 32 39 17 21 1021.1 1021.0 0.0
23/04:30pm 22.2 16.1 10.4 47 6.4 W 33 43 18 23 1021.1 1021.0 0.0
23/04:00pm 22.6 16.1 10.4 46 6.7 WSW 35 43 19 23 1021.1 1021.0 0.0
23/03:30pm 23.3 17.5 11.4 47 6.7 WSW 33 41 18 22 1020.9 1020.8 0.0
23/03:00pm 22.9 17.1 10.7 46 6.7 W 32 39 17 21 1021.0 1020.9 0.0
23/02:30pm 23.2 17.7 10.6 45 6.9 W 30 35 16 19 1021.0 1020.9 0.0
23/02:00pm 23.2 18.0 10.3 44 7.1 W 28 35 15 19 1021.1 1021.0 0.0
23/01:30pm 22.6 17.6 9.7 44 7.0 W 26 35 14 19 1021.1 1021.0 0.0
23/01:00pm 22.7 18.4 9.5 43 7.1 W 22 28 12 15 1021.1 1021.0 0.0
23/12:30pm 22.5 18.6 8.6 41 7.4 W 19 26 10 14 1021.3 1021.2 0.0
23/12:00pm 21.5 18.5 9.1 45 6.6 W 15 26 8 14 1021.5 1021.4 0.0
23/11:30am 21.4 18.0 9.3 46 6.4 SW 17 24 9 13 1021.6 1021.5 0.0
23/11:00am 20.8 18.1 8.8 46 6.3 WSW 13 24 7 13 1021.4 1021.3 0.0
23/10:30am 20.8 16.7 10.0 50 5.8 SW 22 32 12 17 1021.3 1021.2 0.0
23/10:00am 20.7 17.0 9.3 48 6.1 SW 19 30 10 16 1021.1 1021.0 0.0
23/09:30am 19.4 15.1 9.3 52 5.3 SSW 22 30 12 16 1020.8 1020.7 0.0
23/09:00am 18.9 15.3 10.5 58 4.5 SSW 20 26 11 14 1020.4 1020.3 0.0
23/08:30am 17.9 16.4 13.2 74 2.6 SSW 13 19 7 10 1020.1 1020.0 0.0
23/08:00am 16.0 15.6 13.1 83 1.6 SSW 7 11 4 6 1019.7 1019.6 0.0
23/07:30am 14.4 13.1 12.4 88 1.1 SSW 11 13 6 7 1019.1 1019.0 0.0
23/07:00am 12.6 11.1 10.5 87 1.1 S 9 11 5 6 1018.7 1018.6 0.0
23/06:30am 13.4 11.6 10.8 84 1.4 SSW 11 13 6 7 1018.2 1018.1 0.0
23/06:00am 13.5 10.9 10.7 83 1.5 SW 15 17 8 9 1017.9 1017.8 0.0
23/05:30am 13.8 11.2 10.6 81 1.7 SW 15 17 8 9 1017.7 1017.6 0.0
23/05:00am 14.7 12.6 11.3 80 1.8 SW 13 17 7 9 1017.5 1017.4 0.0
23/04:30am 16.1 13.0 12.1 77 2.2 SW 20 28 11 15 1017.2 1017.1 0.0
23/04:00am 16.6 13.1 12.2 75 2.4 SW 22 32 12 17 1017.1 1017.0 0.0
23/03:30am 17.0 12.9 11.5 70 3.0 SW 24 35 13 19 1016.8 1016.7 0.0
23/03:00am 16.9 12.8 11.6 71 2.9 WSW 24 32 13 17 1016.7 1016.6 0.0
23/02:30am 17.1 12.5 12.2 73 2.7 SW 28 37 15 20 1016.6 1016.5 0.0
23/02:00am 17.5 12.6 12.4 72 2.8 WSW 30 41 16 22 1016.4 1016.3 0.0
23/01:30am 17.7 12.5 12.8 73 2.7 SW 32 41 17 22 1016.5 1016.4 0.0
23/01:00am 17.5 13.2 12.0 70 3.0 WSW 26 33 14 18 1016.8 1016.7 0.0
23/12:30am 17.9 12.4 11.7 67 3.4 WSW 32 41 17 22 1016.7 1016.6 0.0
23/12:00am 18.1 12.6 11.9 67 3.4 WSW 32 41 17 22 1016.9 1016.8 0.0
 
Date/Time
CDT
Temp
°C
App
Temp
°C
Dew
Point
°C
Rel
Hum
%
Delta-T
°C
Wind Press
QNH
hPa
Press
MSL
hPa
Rain since
9am
mm
Dir  Spd
km/h
Gust
km/h
Spd
kts
Gust
kts
22/11:30pm 18.5 13.1 13.8 74 2.7 WSW 35 44 19 24 1016.7 1016.6 0.0
22/11:00pm 18.5 12.4 13.1 71 3.0 WSW 37 46 20 25 1016.4 1016.3 0.0
22/10:30pm 18.7 13.4 14.2 75 2.6 WSW 35 43 19 23 1016.3 1016.2 0.0
22/10:00pm 18.9 14.2 14.2 74 2.7 WSW 32 41 17 22 1016.0 1015.9 0.0
22/09:30pm 19.4 14.0 12.7 65 3.8 WSW 33 46 18 25 1015.4 1015.3 0.0
22/09:00pm 19.2 15.2 14.2 73 2.9 WSW 28 43 15 23 1015.1 1015.0 0.0
22/08:30pm 19.9 14.8 13.6 67 3.6 W 33 48 18 26 1014.6 1014.5 0.0
22/08:00pm 20.3 14.9 12.8 62 4.2 W 33 46 18 25 1013.8 1013.7 0.0
22/07:30pm 21.1 15.1 12.0 56 5.1 W 35 46 19 25 1013.7 1013.6 0.0
22/07:00pm 21.8 14.2 11.8 53 5.6 W 43 54 23 29 1013.2 1013.1 0.0
22/06:30pm 22.7 16.1 11.4 49 6.3 W 37 46 20 25 1013.0 1012.9 0.0
22/06:00pm 23.4 15.8 10.5 44 7.1 W 41 50 22 27 1012.6 1012.5 0.0
22/05:30pm 24.0 16.2 11.0 44 7.3 W 43 54 23 29 1012.5 1012.4 0.0
22/05:00pm 23.9 15.5 10.9 44 7.2 W 46 56 25 30 1012.1 1012.0 0.0
22/04:30pm 24.5 16.8 10.0 40 8.0 W 41 52 22 28 1012.0 1011.9 0.0
22/04:00pm 24.1 15.7 9.7 40 7.9 W 44 57 24 31 1011.8 1011.7 0.0
22/03:30pm 25.1 16.7 9.0 36 8.7 W 43 57 23 31 1011.7 1011.6 0.0
22/03:00pm 24.6 17.2 9.7 39 8.2 WNW 39 48 21 26 1011.6 1011.5 0.0
22/02:30pm 25.4 18.7 9.7 37 8.6 WNW 35 44 19 24 1011.4 1011.3 0.0
22/02:00pm 24.6 18.1 10.5 41 7.8 NW 35 44 19 24 1011.5 1011.4 0.0
22/01:30pm 23.7 16.6 9.7 41 7.6 WNW 37 46 20 25 1011.3 1011.2 0.0
22/01:00pm 23.4 14.4 8.7 39 7.9 WNW 46 59 25 32 1011.0 1010.9 0.0
22/12:30pm 23.6 15.3 9.9 42 7.5 WNW 44 56 24 30 1011.0 1010.9 0.0
22/12:00pm 24.0 16.5 9.6 40 7.9 WNW 39 52 21 28 1011.1 1011.0 0.0
22/11:49am 23.7 17.0 11.1 45 7.0 WNW 37 44 20 24 1010.9 1010.8 0.0
22/11:30am 22.6 18.4 11.0 48 6.4 NW 24 35 13 19 1010.2 1010.1 0.0
22/11:00am 23.7 19.8 12.0 48 6.6 WNW 24 32 13 17 1010.5 1010.4 0.0
22/10:30am 22.4 16.5 12.4 53 5.7 W 35 46 19 25 1011.0 1010.9 0.0
22/10:00am 24.1 17.2 13.9 53 6.0 WSW 43 54 23 29 1010.8 1010.7 0.0
22/09:30am 22.1 13.8 15.0 64 4.2 WSW 52 70 28 38 1010.2 1010.1 0.0
22/09:11am 22.7 14.8 14.8 61 4.7 WNW 50 70 27 38 1009.4 1009.3 0.0
22/09:08am 23.8 15.7 14.5 56 5.5 NW 50 67 27 36 1009.4 1009.3 0.0
22/09:00am 25.8 16.4 8.8 34 9.2 NNW 48 67 26 36 1008.7 1008.6 0.0
22/08:48am 25.3 18.8 12.9 46 7.2 NNW 39 57 21 31 1008.3 1008.2 0.0
22/08:30am 24.2 16.3 11.5 45 7.2 NNW 44 57 24 31 1007.8 1007.7 0.0
22/08:00am 25.4 14.8 5.1 27 10.3 N 50 67 27 36 1007.0 1006.9 0.0
22/07:33am 25.2 14.9 2.6 23 10.9 N 46 65 25 35 1006.0 1005.9 0.0
22/07:30am 24.8 15.0 2.3 23 10.8 N 43 56 23 30 1006.1 1006.0 0.0
22/07:09am 24.5 14.6 2.6 24 10.5 N 44 63 24 34 1005.8 1005.7 0.0
22/07:00am 24.5 14.2 2.6 24 10.5 N 46 56 25 30 1005.7 1005.6 0.0
22/06:30am 24.7 15.3 2.2 23 10.8 N 41 50 22 27 1005.4 1005.3 0.0
22/06:00am 23.7 15.4 2.0 24 10.3 NNE 35 44 19 24 1005.6 1005.5 0.0
22/05:30am 24.2 15.8 1.8 23 10.6 NNE 35 46 19 25 1005.7 1005.6 0.0
22/05:00am 24.2 15.4 1.2 22 10.8 NNE 37 46 20 25 1005.5 1005.4 0.0
22/04:30am 24.8 15.2 1.0 21 11.2 NNE 41 54 22 29 1006.0 1005.9 0.0
22/04:00am 25.1 15.8 0.6 20 11.4 NNE 39 50 21 27 1006.4 1006.3 0.0
22/03:30am 24.7 16.2 0.9 21 11.2 NNE 35 44 19 24 1006.9 1006.8 0.0
22/03:00am 24.5 16.4 0.8 21 11.1 NNE 33 43 18 23 1007.4 1007.3 0.0
22/02:30am 24.3 16.1 0.6 21 11.0 NNE 33 43 18 23 1007.9 1007.8 0.0
22/02:00am 24.5 16.0 0.8 21 11.0 NNE 35 44 19 24 1008.2 1008.1 0.0
22/01:30am 23.8 16.1 3.2 26 10.0 NNE 33 43 18 23 1008.6 1008.5 0.0
22/01:00am 22.8 16.6 7.8 38 7.9 NE 30 35 16 19 1009.1 1009.0 0.0
22/12:30am 22.3 16.7 10.1 46 6.7 NE 30 35 16 19 1009.3 1009.2 0.0
22/12:00am 22.3 17.1 8.8 42 7.2 ENE 26 32 14 17 1009.9 1009.8 0.0
 
Date/Time
CDT
Temp
°C
App
Temp
°C
Dew
Point
°C
Rel
Hum
%
Delta-T
°C
Wind Press
QNH
hPa
Press
MSL
hPa
Rain since
9am
mm
Dir  Spd
km/h
Gust
km/h
Spd
kts
Gust
kts
21/11:30pm 22.9 17.1 9.3 42 7.3 ENE 30 35 16 19 1010.0 1009.9 0.0
21/11:00pm 22.6 17.1 10.7 47 6.6 ENE 30 39 16 21 1010.5 1010.4 0.0
21/10:30pm 22.7 17.4 11.4 49 6.3 ENE 30 37 16 20 1011.0 1010.9 0.0
21/10:00pm 22.5 17.5 10.9 48 6.4 ENE 28 32 15 17 1011.4 1011.3 0.0
21/09:30pm 22.1 16.8 5.1 33 8.4 ENE 22 26 12 14 1011.3 1011.2 0.0
21/09:00pm 23.9 18.0 1.5 23 10.5 ENE 22 26 12 14 1011.2 1011.1 0.0
21/08:30pm 23.9 18.4 2.1 24 10.4 NE 20 24 11 13 1011.1 1011.0 0.0
21/08:00pm 26.5 21.0 1.7 20 11.9 NE 20 24 11 13 1011.0 1010.9 0.0
21/07:30pm 28.7 23.3 1.3 17 13.3 NNE 19 22 10 12 1011.0 1010.9 0.0
21/07:00pm 29.7 23.6 0.3 15 14.1 N 22 28 12 15 1011.0 1010.9 0.0
21/06:30pm 30.0 23.9 0.6 15 14.2 N 22 30 12 16 1011.1 1011.0 0.0
21/06:00pm 30.1 25.9 4.0 19 13.4 NNW 15 20 8 11 1011.4 1011.3 0.0
21/05:30pm 29.3 24.5 4.7 21 12.7 NW 19 26 10 14 1011.8 1011.7 0.0
21/05:00pm 27.9 22.7 5.5 24 11.6 NW 22 30 12 16 1012.3 1012.2 0.0
21/04:30pm 28.5 22.5 5.4 23 12.0 NW 26 33 14 18 1012.7 1012.6 0.0
21/04:00pm 28.5 22.8 6.6 25 11.6 NW 26 32 14 17 1013.2 1013.1 0.0
21/03:30pm 28.4 22.4 7.1 26 11.4 NW 28 32 15 17 1013.6 1013.5 0.0
21/03:00pm 27.7 21.7 7.0 27 11.0 NW 28 35 15 19 1014.2 1014.1 0.0
21/02:30pm 27.6 21.6 6.9 27 11.0 NW 28 37 15 20 1014.6 1014.5 0.0
21/02:00pm 27.7 21.2 6.5 26 11.2 NW 30 39 16 21 1015.0 1014.9 0.0
21/01:30pm 28.0 21.4 7.8 28 10.9 NW 32 41 17 22 1015.4 1015.3 0.0
21/01:00pm 27.8 21.7 8.1 29 10.7 NW 30 37 16 20 1015.8 1015.7 0.0
21/12:30pm 27.7 22.1 7.0 27 11.0 NNW 26 35 14 19 1016.3 1016.2 0.0
21/12:00pm 25.8 20.9 6.9 30 9.9 NW 22 28 12 15 1016.7 1016.6 0.0
21/11:30am 25.1 20.7 7.3 32 9.4 NW 20 30 11 16 1017.0 1016.9 0.0
21/11:00am 25.3 20.7 6.5 30 9.8 N 20 35 11 19 1017.5 1017.4 0.0
21/10:30am 24.0 18.5 5.8 31 9.2 N 24 32 13 17 1017.9 1017.8 0.0
21/10:00am 22.2 17.4 7.2 38 7.7 NNE 22 30 12 16 1017.9 1017.8 0.0
21/09:30am 20.7 15.9 9.0 47 6.2 ENE 24 30 13 16 1018.0 1017.9 0.0
21/09:00am 18.8 13.5 9.8 56 4.8 ENE 28 33 15 18 1017.9 1017.8 0.0
21/08:30am 17.1 11.9 10.2 64 3.7 ENE 28 37 15 20 1017.8 1017.7 0.0
21/08:00am 15.0 10.5 10.0 72 2.6 E 24 30 13 16 1017.8 1017.7 0.0
21/07:30am 13.3 8.7 9.5 78 1.9 E 24 30 13 16 1017.5 1017.4 0.0
21/07:00am 12.6 7.7 9.8 83 1.4 ENE 26 32 14 17 1017.2 1017.1 0.0
21/06:30am 12.7 8.2 10.1 84 1.3 ENE 24 28 13 15 1016.9 1016.8 0.0
21/06:00am 12.3 7.7 9.5 83 1.4 ENE 24 32 13 17 1016.9 1016.8 0.0
21/05:30am 12.6 8.7 9.6 82 1.5 ENE 20 32 11 17 1017.1 1017.0 0.0
21/05:00am 11.9 7.5 9.1 83 1.4 ENE 22 26 12 14 1017.1 1017.0 0.0
21/04:30am 11.4 8.3 8.8 84 1.3 E 15 20 8 11 1017.2 1017.1 0.0
21/04:00am 11.7 8.2 8.7 82 1.5 E 17 20 9 11 1017.3 1017.2 0.0
21/03:30am 12.0 8.2 9.0 82 1.5 E 19 20 10 11 1017.2 1017.1 0.0
21/03:00am 11.9 7.9 8.9 82 1.5 E 20 24 11 13 1017.5 1017.4 0.0
21/02:30am 11.6 7.5 8.8 83 1.4 E 20 22 11 12 1017.7 1017.6 0.0
21/02:00am 11.6 7.5 8.6 82 1.5 E 20 22 11 12 1017.7 1017.6 0.0
21/01:30am 11.8 7.7 8.8 82 1.5 ESE 20 22 11 12 1018.2 1018.1 0.0
21/01:00am 11.5 7.9 8.2 80 1.6 SE 17 19 9 10 1018.6 1018.5 0.0
21/12:30am 12.1 8.6 8.8 80 1.6 ESE 17 20 9 11 1018.7 1018.6 0.0
21/12:00am 12.0 8.9 8.7 80 1.6 ESE 15 19 8 10 1019.0 1018.9 0.0
 
Date/Time
CDT
Temp
°C
App
Temp
°C
Dew
Point
°C
Rel
Hum
%
Delta-T
°C
Wind Press
QNH
hPa
Press
MSL
hPa
Rain since
9am
mm
Dir  Spd
km/h
Gust
km/h
Spd
kts
Gust
kts
20/11:30pm 12.8 8.9 8.7 76 2.0 SE 19 22 10 12 1019.1 1019.0 0.0
20/11:00pm 13.0 9.5 8.9 76 2.1 SE 17 19 9 10 1019.1 1019.0 0.0
20/10:30pm 12.7 9.1 8.4 75 2.1 SSE 17 20 9 11 1019.4 1019.3 0.0

Other Formats:

Comma delimited format used in spreadsheet applications
http://www.bom.gov.au/fwo/IDS60801/IDS60801.95659.axf

JavaScript Object Notation format (JSON) in row-major order
http://www.bom.gov.au/fwo/IDS60801/IDS60801.95659.json